Time;durP1;ratioP1;P1;durP2;ratioP2;P2;SDS_P1;SDS_P2;PMS_P1;PMS_P2;Temp;Humidity;BMP_temperature;BMP_pressure;BME280_temperature;BME280_humidity;BME280_pressure;Samples;Min_cycle;Max_cycle;Signal;HPM_P1;HPM_P2
2022/11/07 00:00:36;;;;;;;7.15;3.42;;;9.40;99.90;;;;;;6143207;29;20617;-68
2022/11/07 00:03:41;;;;;;;3.08;2.88;;;9.50;99.90;;;;;;6142678;29;20294;-68
2022/11/07 00:06:46;;;;;;;3.67;3.47;;;9.50;99.90;;;;;;6143294;29;20299;-68
2022/11/07 00:09:51;;;;;;;4.57;3.13;;;9.50;99.90;;;;;;6145115;29;20302;-68
2022/11/07 00:12:56;;;;;;;3.58;3.28;;;9.60;99.90;;;;;;6166536;29;20302;-68
2022/11/07 00:16:05;;;;;;;3.53;3.33;;;9.60;99.90;;;;;;6166923;29;20270;-68
2022/11/07 00:19:13;;;;;;;3.80;3.47;;;9.60;99.90;;;;;;6166026;29;20299;-68
2022/11/07 00:22:18;;;;;;;4.32;3.45;;;9.60;99.90;;;;;;6165962;29;20274;-68
2022/11/07 00:25:23;;;;;;;3.60;3.50;;;9.70;99.90;;;;;;6166897;29;20479;-68
2022/11/07 00:28:28;;;;;;;2.95;2.95;;;9.70;99.90;;;;;;6165978;29;20618;-68
2022/11/07 00:31:34;;;;;;;3.85;3.65;;;9.70;99.90;;;;;;6166109;29;20272;-67
2022/11/07 00:34:39;;;;;;;3.97;3.67;;;9.70;99.90;;;;;;6149013;29;20314;-67
2022/11/07 00:37:43;;;;;;;6.03;3.70;;;9.70;99.90;;;;;;6165771;29;20594;-68
2022/11/07 00:40:55;;;;;;;4.97;4.07;;;9.70;99.90;;;;;;6165920;29;20476;-68
2022/11/07 00:43:59;;;;;;;3.72;3.53;;;9.70;99.90;;;;;;6165603;29;20376;-68
2022/11/07 00:47:06;;;;;;;4.07;3.72;;;9.70;99.90;;;;;;6165132;29;20270;-68
2022/11/07 00:50:12;;;;;;;4.32;3.92;;;9.60;99.90;;;;;;6165671;29;20270;-68
2022/11/07 00:53:17;;;;;;;4.82;3.80;;;9.60;99.90;;;;;;6165501;29;20353;-68
2022/11/07 00:56:24;;;;;;;5.50;4.05;;;9.60;99.90;;;;;;6166041;29;20271;-68
2022/11/07 00:59:29;;;;;;;4.00;3.80;;;9.60;99.90;;;;;;6165093;29;20357;-68
2022/11/07 01:02:35;;;;;;;4.20;3.90;;;9.60;99.90;;;;;;6165028;28;20298;-67
2022/11/07 01:05:39;;;;;;;4.13;3.92;;;9.60;99.90;;;;;;6165448;29;20274;-67
2022/11/07 01:08:44;;;;;;;5.07;4.40;;;9.60;99.90;;;;;;6165186;29;20295;-67
2022/11/07 01:11:49;;;;;;;4.32;4.05;;;9.60;99.90;;;;;;6146929;29;20345;-67
2022/11/07 01:14:54;;;;;;;5.20;4.05;;;9.60;99.90;;;;;;6141130;29;20311;-68
2022/11/07 01:18:00;;;;;;;4.35;4.03;;;9.60;99.90;;;;;;6140881;29;20295;-67
2022/11/07 01:21:06;;;;;;;4.30;3.90;;;9.50;99.90;;;;;;6141533;29;20287;-67
2022/11/07 01:24:19;;;;;;;7.88;4.07;;;9.60;99.90;;;;;;6140917;29;20618;-67
2022/11/07 01:27:24;;;;;;;7.13;4.25;;;9.60;99.90;;;;;;6140709;29;20299;-67
2022/11/07 01:30:28;;;;;;;5.85;4.82;;;9.60;99.90;;;;;;6141079;29;20275;-67
2022/11/07 01:33:35;;;;;;;4.30;4.00;;;9.60;99.90;;;;;;6123876;29;20302;-67
2022/11/07 01:36:39;;;;;;;4.00;3.90;;;9.50;99.90;;;;;;6140790;29;20271;-68
2022/11/07 01:39:44;;;;;;;5.15;4.45;;;9.50;99.90;;;;;;6140566;29;20307;-68
2022/11/07 01:42:49;;;;;;;4.70;4.30;;;9.40;99.90;;;;;;6140553;29;20294;-68
2022/11/07 01:45:53;;;;;;;4.22;3.92;;;9.40;99.90;;;;;;6141173;29;20271;-68
2022/11/07 01:49:07;;;;;;;5.80;3.80;;;9.40;99.90;;;;;;6140250;29;20327;-68
2022/11/07 01:52:17;;;;;;;5.28;4.93;;;9.40;99.90;;;;;;6140180;29;20323;-67
2022/11/07 01:55:26;;;;;;;5.95;4.63;;;9.40;99.90;;;;;;6140202;29;20290;-67
2022/11/07 01:58:30;;;;;;;5.25;4.70;;;9.50;99.90;;;;;;6139932;29;20603;-67
2022/11/07 02:01:35;;;;;;;7.13;4.40;;;9.40;99.90;;;;;;6139969;29;20292;-67
2022/11/07 02:04:42;;;;;;;5.40;5.03;;;9.50;99.90;;;;;;6140082;29;20295;-67
2022/11/07 02:07:47;;;;;;;5.53;5.13;;;9.50;99.90;;;;;;6139702;29;20316;-67
2022/11/07 02:10:52;;;;;;;6.05;4.88;;;9.50;99.90;;;;;;6151485;29;20266;-67
2022/11/07 02:13:57;;;;;;;5.63;5.22;;;9.50;99.90;;;;;;6163604;29;20290;-68
2022/11/07 02:17:02;;;;;;;8.35;5.32;;;9.50;99.90;;;;;;6163563;29;20280;-67
2022/11/07 02:20:12;;;;;;;5.55;5.05;;;9.50;99.90;;;;;;6162984;29;20602;-67
2022/11/07 02:23:25;;;;;;;5.28;4.85;;;9.50;99.90;;;;;;6163790;29;20407;-67
2022/11/07 02:26:31;;;;;;;9.90;5.30;;;9.40;99.90;;;;;;6163485;29;20279;-68
2022/11/07 02:29:37;;;;;;;5.43;4.88;;;9.50;99.90;;;;;;6163573;29;20299;-68
2022/11/07 02:32:42;;;;;;;8.05;5.45;;;9.50;99.90;;;;;;6163484;29;20583;-68
2022/11/07 02:35:49;;;;;;;6.15;4.90;;;9.50;99.90;;;;;;6163652;29;20267;-68
2022/11/07 02:38:57;;;;;;;7.95;4.95;;;9.40;99.90;;;;;;6134071;29;20315;-68
2022/11/07 02:42:04;;;;;;;5.30;4.68;;;9.40;99.90;;;;;;6116263;29;20291;-68
2022/11/07 02:45:12;;;;;;;5.25;4.68;;;9.50;99.90;;;;;;6115800;29;20279;-68
2022/11/07 02:48:17;;;;;;;5.07;4.72;;;9.60;99.90;;;;;;6115844;29;20299;-68
2022/11/07 02:51:23;;;;;;;4.88;4.50;;;9.60;99.90;;;;;;6116114;29;20279;-68
2022/11/07 02:54:28;;;;;;;6.30;4.60;;;9.60;99.90;;;;;;6116230;29;20303;-68
2022/11/07 02:57:34;;;;;;;4.22;3.92;;;9.70;99.90;;;;;;6115940;29;20295;-68
2022/11/07 03:00:39;;;;;;;5.20;4.53;;;9.80;99.90;;;;;;6116429;29;20295;-68
2022/11/07 03:03:47;;;;;;;4.30;4.00;;;9.70;99.90;;;;;;6115732;29;20502;-68
2022/11/07 03:06:52;;;;;;;3.97;3.72;;;9.80;99.90;;;;;;6116461;29;20303;-68
2022/11/07 03:09:56;;;;;;;4.10;3.90;;;9.90;99.90;;;;;;6119425;29;20291;-68
2022/11/07 03:13:03;;;;;;;4.55;4.20;;;9.80;99.90;;;;;;6139366;29;20291;-68
2022/11/07 03:16:09;;;;;;;4.00;3.90;;;9.90;99.90;;;;;;6139763;29;20271;-68
2022/11/07 03:19:14;;;;;;;3.95;3.78;;;9.90;99.90;;;;;;6139498;29;20487;-67
2022/11/07 03:22:20;;;;;;;4.28;3.88;;;10.00;99.90;;;;;;6139176;29;20300;-67
2022/11/07 03:25:24;;;;;;;4.25;3.90;;;10.00;99.90;;;;;;6139858;29;20276;-67
2022/11/07 03:28:31;;;;;;;4.20;3.90;;;10.00;99.90;;;;;;6143110;29;20300;-68
2022/11/07 03:31:36;;;;;;;3.75;3.58;;;10.00;99.90;;;;;;6143615;29;20451;-67
2022/11/07 03:34:41;;;;;;;3.85;3.60;;;10.00;99.90;;;;;;6143449;29;20299;-67
2022/11/07 03:37:46;;;;;;;4.05;3.75;;;10.00;99.90;;;;;;6143623;29;20298;-67
2022/11/07 03:40:51;;;;;;;4.30;4.00;;;10.10;99.90;;;;;;6143664;29;20566;-67
2022/11/07 03:43:57;;;;;;;3.53;3.35;;;10.00;99.90;;;;;;6143252;29;20298;-67
2022/11/07 03:47:02;;;;;;;4.10;3.80;;;10.00;99.90;;;;;;6143348;29;20275;-68
2022/11/07 03:50:09;;;;;;;3.72;3.50;;;10.10;99.90;;;;;;6142897;29;20275;-68
2022/11/07 03:53:15;;;;;;;3.60;3.50;;;10.10;99.90;;;;;;6142766;29;20295;-67
2022/11/07 03:56:27;;;;;;;4.20;3.80;;;10.10;99.90;;;;;;6143601;29;20508;-67
2022/11/07 03:59:33;;;;;;;4.53;3.75;;;10.10;99.90;;;;;;6142894;29;20607;-67
2022/11/07 04:02:38;;;;;;;3.65;3.55;;;10.10;99.90;;;;;;6144482;29;20309;-67
2022/11/07 04:05:43;;;;;;;3.92;3.63;;;10.10;99.90;;;;;;6149876;28;20587;-67
2022/11/07 04:08:48;;;;;;;3.92;3.60;;;10.10;99.90;;;;;;6166459;29;20294;-67
2022/11/07 04:18:41;;;;;;;3.95;3.60;;;10.20;99.90;;;;;;6145923;29;20294;-67
2022/11/07 04:21:46;;;;;;;3.30;3.10;;;10.20;99.90;;;;;;6166769;29;20286;-67
2022/11/07 04:24:51;;;;;;;3.83;3.45;;;10.30;99.90;;;;;;6165846;29;20598;-67
2022/11/07 04:27:55;;;;;;;3.13;3.03;;;10.30;99.90;;;;;;6165776;29;20298;-67
2022/11/07 04:31:01;;;;;;;3.75;3.47;;;10.30;99.90;;;;;;6166608;29;20274;-67
2022/11/07 04:34:06;;;;;;;3.20;3.10;;;10.40;99.90;;;;;;6165968;29;20298;-67
2022/11/07 04:37:11;;;;;;;3.13;3.03;;;10.40;99.90;;;;;;6150498;29;20267;-67
2022/11/07 04:40:18;;;;;;;3.75;3.60;;;10.40;99.90;;;;;;6141815;29;20278;-67
2022/11/07 04:43:24;;;;;;;3.13;2.92;;;10.40;99.90;;;;;;6141604;29;20303;-68
2022/11/07 04:46:30;;;;;;;3.47;3.10;;;10.40;99.90;;;;;;6142283;29;20566;-69
2022/11/07 04:49:35;;;;;;;4.43;3.13;;;10.50;99.90;;;;;;6142129;29;20302;-68
2022/11/07 04:52:40;;;;;;;4.88;3.10;;;10.50;99.90;;;;;;6142358;29;20302;-68
2022/11/07 04:55:45;;;;;;;3.67;3.50;;;10.50;99.90;;;;;;6142555;29;20450;-67
2022/11/07 04:58:50;;;;;;;3.30;3.20;;;10.50;99.90;;;;;;6141806;29;20586;-67
2022/11/07 05:01:56;;;;;;;4.60;3.55;;;10.50;99.90;;;;;;6141985;29;20291;-67
2022/11/07 05:05:01;;;;;;;3.97;3.78;;;10.50;99.90;;;;;;6140936;29;20271;-68
2022/11/07 05:08:06;;;;;;;4.35;4.10;;;10.50;99.90;;;;;;6140910;29;20307;-68
2022/11/07 05:11:11;;;;;;;4.70;4.28;;;10.50;99.90;;;;;;6155063;29;20575;-68
2022/11/07 05:14:16;;;;;;;6.10;4.13;;;10.60;99.90;;;;;;6164796;29;20303;-67
2022/11/07 05:17:22;;;;;;;5.88;4.00;;;10.60;99.90;;;;;;6165151;29;20593;-67
2022/11/07 05:20:34;;;;;;;4.60;4.20;;;10.70;99.90;;;;;;6165421;29;20270;-68
2022/11/07 05:23:39;;;;;;;4.60;4.10;;;10.70;99.90;;;;;;6164496;29;20298;-68
2022/11/07 05:26:44;;;;;;;8.63;4.72;;;10.70;99.90;;;;;;6165374;29;20271;-67
2022/11/07 05:29:49;;;;;;;6.13;4.97;;;10.80;99.90;;;;;;6164448;29;20299;-68
2022/11/07 05:32:55;;;;;;;5.40;4.90;;;10.80;99.90;;;;;;6164104;29;20302;-67
2022/11/07 05:36:11;;;;;;;7.53;5.03;;;10.80;99.90;;;;;;6165081;29;20266;-68
2022/11/07 05:39:15;;;;;;;9.23;4.90;;;10.80;99.90;;;;;;6164634;29;20303;-68
2022/11/07 05:42:20;;;;;;;7.53;4.63;;;10.80;99.90;;;;;;6164275;29;20504;-67
2022/11/07 05:45:25;;;;;;;4.72;4.38;;;10.90;99.90;;;;;;6165010;29;20275;-67
2022/11/07 05:48:31;;;;;;;6.60;4.85;;;10.90;99.90;;;;;;6164249;29;20298;-68
2022/11/07 05:51:36;;;;;;;6.78;4.88;;;10.80;99.90;;;;;;6147735;29;20568;-67
2022/11/07 05:54:41;;;;;;;5.22;4.60;;;10.90;99.90;;;;;;6164460;29;20299;-67
2022/11/07 05:57:46;;;;;;;6.43;5.15;;;10.90;99.90;;;;;;6163862;29;20586;-67
2022/11/07 06:00:51;;;;;;;8.07;5.20;;;10.90;99.90;;;;;;6164677;29;20267;-67
2022/11/07 06:03:57;;;;;;;12.65;5.70;;;10.80;99.90;;;;;;6156063;29;20298;-67
2022/11/07 06:07:02;;;;;;;11.45;5.82;;;10.80;99.90;;;;;;6163675;29;20303;-69
2022/11/07 06:10:09;;;;;;;8.60;5.75;;;10.90;99.90;;;;;;6159334;29;20264;-68
2022/11/07 06:13:16;;;;;;;14.98;6.28;;;10.80;99.90;;;;;;6140132;29;20477;-68
2022/11/07 06:16:21;;;;;;;10.60;5.80;;;10.80;99.90;;;;;;6140571;29;20274;-68
2022/11/07 06:19:27;;;;;;;8.95;5.45;;;10.80;99.90;;;;;;6140289;29;20461;-68
2022/11/07 06:22:32;;;;;;;11.10;5.78;;;10.80;99.90;;;;;;6122866;29;20302;-69
2022/11/07 06:25:37;;;;;;;9.73;5.88;;;10.90;99.90;;;;;;6140086;29;20271;-68
2022/11/07 06:28:42;;;;;;;8.63;5.40;;;10.90;99.90;;;;;;6139793;29;20603;-68
2022/11/07 06:31:47;;;;;;;7.93;5.25;;;10.80;99.90;;;;;;6139973;29;20563;-68
2022/11/07 06:34:53;;;;;;;7.97;5.53;;;10.80;99.90;;;;;;6139575;29;20298;-67
2022/11/07 06:38:02;;;;;;;8.10;5.20;;;10.90;99.90;;;;;;6139401;29;20468;-66
2022/11/07 06:41:09;;;;;;;9.55;5.70;;;10.80;99.90;;;;;;6139999;29;20275;-67
2022/11/07 06:44:14;;;;;;;16.70;6.38;;;10.80;99.90;;;;;;6139709;29;20307;-67
2022/11/07 06:47:20;;;;;;;8.48;6.15;;;10.80;99.90;;;;;;6139636;29;20559;-68
2022/11/07 06:50:26;;;;;;;7.15;5.35;;;10.80;99.90;;;;;;6140157;29;20267;-68
2022/11/07 06:53:31;;;;;;;14.27;5.90;;;10.80;99.90;;;;;;6139580;29;20302;-68
2022/11/07 06:56:36;;;;;;;7.57;5.70;;;10.90;99.90;;;;;;6140197;29;20353;-68
2022/11/07 06:59:40;;;;;;;7.65;5.63;;;10.90;99.90;;;;;;6139446;29;20299;-67
2022/11/07 07:02:45;;;;;;;12.80;5.40;;;10.80;99.90;;;;;;6142134;29;20294;-68
2022/11/07 07:06:06;;;;;;;6.43;5.38;;;10.80;99.90;;;;;;6144388;29;20308;-68
2022/11/07 07:09:11;;;;;;;11.05;5.15;;;10.80;99.90;;;;;;6144066;29;20485;-68
2022/11/07 07:12:16;;;;;;;5.50;5.00;;;10.90;99.90;;;;;;6166196;29;20307;-67
2022/11/07 07:15:21;;;;;;;6.60;5.18;;;10.80;99.90;;;;;;6167986;29;20275;-68
2022/11/07 07:18:27;;;;;;;7.43;5.30;;;10.80;99.90;;;;;;6166930;29;20303;-68
2022/11/07 07:21:34;;;;;;;6.43;4.60;;;10.90;99.90;;;;;;6168149;29;20270;-69
2022/11/07 07:24:38;;;;;;;9.10;4.65;;;10.90;99.90;;;;;;6167491;29;20302;-67
2022/11/07 07:27:43;;;;;;;7.82;4.63;;;11.00;99.90;;;;;;6167222;29;20362;-67
2022/11/07 07:30:48;;;;;;;7.78;4.70;;;11.00;99.90;;;;;;6167842;29;20554;-67
2022/11/07 07:33:55;;;;;;;7.32;4.63;;;10.90;99.90;;;;;;6159245;29;20306;-67
2022/11/07 07:37:02;;;;;;;7.18;4.97;;;10.90;99.90;;;;;;6166981;29;20274;-68
2022/11/07 07:40:09;;;;;;;6.88;5.10;;;10.90;99.90;;;;;;6167299;29;20272;-68
2022/11/07 07:43:14;;;;;;;10.60;5.40;;;11.00;99.90;;;;;;6167206;29;20583;-68
2022/11/07 07:46:23;;;;;;;8.63;5.50;;;11.00;99.90;;;;;;6167616;29;20459;-67
2022/11/07 07:49:28;;;;;;;7.93;4.65;;;11.00;99.90;;;;;;6166972;29;20298;-68
2022/11/07 07:52:34;;;;;;;4.95;4.47;;;11.00;99.90;;;;;;6166719;29;20298;-67
2022/11/07 07:55:39;;;;;;;5.50;4.40;;;10.90;99.90;;;;;;6167321;29;20278;-67
2022/11/07 07:58:44;;;;;;;7.22;4.38;;;11.00;99.90;;;;;;6166249;29;20298;-67
2022/11/07 08:01:48;;;;;;;13.48;4.85;;;11.00;99.90;;;;;;6167482;29;20558;-67
2022/11/07 08:05:00;;;;;;;10.15;4.40;;;11.00;99.90;;;;;;6166130;29;20299;-67
2022/11/07 08:08:08;;;;;;;5.10;4.68;;;11.10;99.90;;;;;;6165997;29;20302;-67
2022/11/07 08:11:13;;;;;;;5.57;4.15;;;11.10;99.90;;;;;;6152702;29;20268;-67
2022/11/07 08:14:18;;;;;;;6.97;4.43;;;11.00;99.90;;;;;;6142412;29;20303;-67
2022/11/07 08:17:23;;;;;;;8.20;4.47;;;11.10;99.90;;;;;;6142317;29;20304;-68
2022/11/07 08:20:28;;;;;;;4.63;4.22;;;11.00;99.90;;;;;;6143084;29;20271;-68
2022/11/07 08:23:53;;;;;;;9.38;4.53;;;11.00;99.90;;;;;;6142165;29;20302;-68
2022/11/07 08:26:58;;;;;;;8.02;4.50;;;11.00;99.90;;;;;;6142520;29;20276;-68
2022/11/07 08:30:04;;;;;;;6.78;4.43;;;11.00;99.90;;;;;;6142821;29;20275;-68
2022/11/07 08:33:16;;;;;;;6.88;4.07;;;11.10;99.90;;;;;;6141958;29;20323;-68
2022/11/07 08:36:21;;;;;;;4.63;4.15;;;11.00;99.90;;;;;;6142382;29;20271;-68
2022/11/07 08:39:27;;;;;;;11.10;4.47;;;11.00;99.90;;;;;;6141991;29;20618;-67
2022/11/07 08:42:32;;;;;;;9.73;4.78;;;11.10;99.90;;;;;;6142010;29;20600;-68
2022/11/07 08:45:37;;;;;;;14.57;4.50;;;11.10;99.90;;;;;;6142432;29;20291;-68
2022/11/07 08:48:42;;;;;;;5.72;4.60;;;11.10;99.90;;;;;;6141519;29;20306;-68
2022/11/07 08:51:47;;;;;;;6.53;4.68;;;11.00;99.90;;;;;;6142424;29;20275;-68
2022/11/07 08:54:53;;;;;;;7.47;4.57;;;11.00;99.90;;;;;;6141753;29;20314;-68
2022/11/07 08:57:59;;;;;;;5.65;4.20;;;11.00;99.90;;;;;;6141842;29;20307;-68
2022/11/07 09:01:06;;;;;;;9.48;4.65;;;10.90;99.90;;;;;;6141585;29;20271;-68
2022/11/07 09:04:12;;;;;;;4.85;4.55;;;10.90;99.90;;;;;;6141203;29;20352;-68
2022/11/07 09:07:17;;;;;;;8.63;4.70;;;10.90;99.90;;;;;;6141396;29;20307;-68
2022/11/07 09:10:24;;;;;;;7.40;4.93;;;11.00;99.90;;;;;;6149026;29;20271;-68
2022/11/07 09:13:29;;;;;;;4.47;4.15;;;11.10;99.90;;;;;;6165205;29;20294;-69
2022/11/07 09:16:34;;;;;;;6.03;4.78;;;11.10;99.90;;;;;;6165673;29;20270;-67
2022/11/07 09:19:39;;;;;;;5.25;4.63;;;11.00;99.90;;;;;;6164937;29;20299;-67
2022/11/07 09:22:44;;;;;;;6.25;4.50;;;11.10;99.90;;;;;;6164869;29;20298;-68
2022/11/07 09:25:50;;;;;;;8.05;4.80;;;11.10;99.90;;;;;;6164898;28;20290;-67
2022/11/07 09:28:55;;;;;;;4.88;4.50;;;11.20;99.90;;;;;;6164535;29;20459;-68
2022/11/07 09:32:05;;;;;;;8.82;5.20;;;11.20;99.90;;;;;;6164749;29;20266;-68
2022/11/07 09:35:30;;;;;;;5.40;4.40;;;11.30;99.90;;;;;;6164517;29;20278;-67
2022/11/07 09:38:34;;;;;;;5.97;4.82;;;11.40;99.90;;;;;;6164561;29;20598;-68
2022/11/07 09:41:54;;;;;;;6.38;4.90;;;11.20;99.90;;;;;;6164385;29;20270;-68
2022/11/07 09:45:00;;;;;;;7.72;5.07;;;11.20;99.90;;;;;;6164093;29;20473;-68
2022/11/07 09:48:16;;;;;;;8.35;5.40;;;11.20;99.90;;;;;;6164457;29;20294;-68
2022/11/07 09:51:44;;;;;;;9.43;5.03;;;11.30;99.90;;;;;;6166431;29;20527;-68
2022/11/07 09:54:53;;;;;;;5.30;4.72;;;11.40;99.90;;;;;;6165507;29;20602;-67
2022/11/07 09:58:03;;;;;;;5.15;4.60;;;11.40;99.90;;;;;;6164055;29;20303;-67
2022/11/07 10:01:13;;;;;;;7.43;5.15;;;11.40;99.90;;;;;;6164123;29;20365;-68
2022/11/07 10:04:21;;;;;;;8.57;5.20;;;11.50;99.90;;;;;;6163517;29;22178;-68
2022/11/07 10:07:40;;;;;;;10.60;5.50;;;11.40;99.90;;;;;;6163790;29;20306;-68
2022/11/07 10:10:49;;;;;;;11.88;5.18;;;11.50;99.90;;;;;;6153836;29;20267;-68
2022/11/07 10:14:04;;;;;;;10.00;6.13;;;11.50;99.90;;;;;;6139937;29;20299;-68
2022/11/07 10:17:18;;;;;;;10.57;5.00;;;11.50;99.90;;;;;;6140026;29;20547;-68
2022/11/07 10:20:38;;;;;;;5.88;5.07;;;11.60;99.90;;;;;;6140861;29;20271;-68
2022/11/07 10:23:58;;;;;;;11.85;5.25;;;11.50;99.90;;;;;;6140083;29;20299;-67
2022/11/07 10:27:05;;;;;;;7.95;5.07;;;11.60;99.90;;;;;;6139892;29;20578;-68
2022/11/07 10:30:19;;;;;;;6.38;5.10;;;11.60;99.90;;;;;;6140632;29;20267;-68
2022/11/07 10:33:38;;;;;;;7.20;4.30;;;11.60;99.90;;;;;;6140215;29;20295;-67
2022/11/07 10:36:42;;;;;;;10.20;4.80;;;11.70;99.90;;;;;;6139596;29;20453;-67
2022/11/07 10:39:48;;;;;;;5.07;4.53;;;11.70;99.90;;;;;;6139892;29;20299;-67
2022/11/07 10:42:54;;;;;;;5.13;4.65;;;11.60;99.90;;;;;;6139583;29;20294;-67
2022/11/07 10:46:02;;;;;;;5.50;4.07;;;11.60;99.90;;;;;;6140292;29;20291;-67
2022/11/07 10:49:19;;;;;;;7.47;5.05;;;11.60;99.90;;;;;;6139638;29;20454;-68
2022/11/07 10:52:26;;;;;;;6.18;4.75;;;11.60;99.90;;;;;;6139918;29;20322;-70
2022/11/07 10:55:41;;;;;;;4.85;4.15;;;11.50;99.90;;;;;;6140049;29;20311;-68
2022/11/07 10:58:47;;;;;;;11.07;4.50;;;11.60;99.90;;;;;;6139200;29;20307;-68
2022/11/07 11:01:55;;;;;;;8.57;4.72;;;11.60;99.90;;;;;;6139969;29;20551;-68
2022/11/07 11:05:02;;;;;;;9.38;5.10;;;11.60;99.90;;;;;;6138626;29;20291;-68
2022/11/07 11:08:14;;;;;;;8.20;5.97;;;11.70;99.90;;;;;;6138786;29;20509;-68
2022/11/07 11:11:32;;;;;;;5.97;4.88;;;11.70;99.90;;;;;;6154980;29;20449;-68
2022/11/07 11:14:36;;;;;;;7.13;5.00;;;11.80;99.90;;;;;;6163050;29;20294;-69
2022/11/07 11:17:44;;;;;;;5.63;4.60;;;11.90;99.90;;;;;;6163195;29;20302;-68
2022/11/07 11:20:56;;;;;;;6.40;4.60;;;11.80;99.90;;;;;;6163585;29;20275;-69
2022/11/07 11:24:00;;;;;;;9.40;4.75;;;11.80;99.90;;;;;;6162900;29;20298;-68
2022/11/07 11:27:13;;;;;;;5.90;4.38;;;11.70;99.90;;;;;;6162992;29;20287;-67
2022/11/07 11:30:20;;;;;;;4.82;4.47;;;11.70;99.90;;;;;;6163591;29;20270;-68
2022/11/07 11:33:32;;;;;;;5.07;4.60;;;11.70;99.90;;;;;;6145951;29;20294;-68
2022/11/07 11:36:40;;;;;;;5.32;4.38;;;11.70;99.90;;;;;;6163507;29;20274;-68
2022/11/07 11:39:49;;;;;;;7.43;5.18;;;11.70;99.90;;;;;;6163040;29;20302;-68
2022/11/07 11:42:59;;;;;;;9.55;4.80;;;11.70;99.90;;;;;;6162576;29;20299;-68
2022/11/07 11:46:11;;;;;;;4.65;4.03;;;11.70;99.90;;;;;;6163097;29;20479;-68
2022/11/07 11:49:22;;;;;;;6.88;4.32;;;11.70;99.90;;;;;;6166057;28;20306;-67
2022/11/07 11:52:30;;;;;;;6.10;4.03;;;11.70;99.90;;;;;;6166880;29;20302;-67
2022/11/07 11:55:42;;;;;;;5.55;4.70;;;11.60;99.90;;;;;;6167220;29;20274;-68
2022/11/07 11:59:06;;;;;;;7.82;4.95;;;11.50;99.90;;;;;;6166593;29;20299;-68
2022/11/07 12:02:46;;;;;;;8.40;4.10;;;11.70;99.90;;;;;;6166350;29;20275;-68
2022/11/07 12:06:19;;;;;;;7.30;4.03;;;11.70;99.90;;;;;;6167087;29;20294;-68
2022/11/07 12:09:39;;;;;;;4.43;4.03;;;11.60;99.90;;;;;;6149746;29;20614;-68
2022/11/07 12:12:55;;;;;;;4.55;4.10;;;11.70;99.90;;;;;;6119266;29;20300;-68
2022/11/07 12:16:13;;;;;;;4.85;3.83;;;11.60;99.90;;;;;;6119555;29;20281;-68
2022/11/07 12:19:23;;;;;;;5.57;3.70;;;11.60;99.90;;;;;;6119043;29;20311;-68
2022/11/07 12:22:43;;;;;;;4.20;3.80;;;11.50;99.90;;;;;;6119115;29;20240;-68
2022/11/07 12:25:55;;;;;;;4.38;3.97;;;11.40;99.90;;;;;;6102780;29;20288;-68
2022/11/07 12:29:12;;;;;;;8.20;4.35;;;11.40;99.90;;;;;;6118760;29;20300;-68
2022/11/07 12:32:26;;;;;;;4.90;3.80;;;11.50;99.90;;;;;;6118819;29;20309;-68
2022/11/07 12:35:44;;;;;;;5.13;3.83;;;11.40;99.90;;;;;;6119323;29;20280;-68
2022/11/07 12:39:21;;;;;;;4.70;4.28;;;11.40;99.90;;;;;;6118362;29;20466;-68
2022/11/07 12:42:42;;;;;;;5.10;4.60;;;11.40;99.90;;;;;;6118126;29;20308;-68
2022/11/07 12:45:54;;;;;;;7.68;4.60;;;11.30;99.90;;;;;;6118860;29;20281;-68
2022/11/07 12:49:50;;;;;;;6.72;5.10;;;11.30;99.90;;;;;;6101382;29;20303;-67
2022/11/07 12:53:09;;;;;;;4.75;4.35;;;11.30;99.90;;;;;;6118166;29;20483;-67
2022/11/07 12:56:21;;;;;;;5.47;4.68;;;11.20;99.90;;;;;;6118660;29;20276;-67
2022/11/07 12:59:27;;;;;;;7.00;4.90;;;11.30;99.90;;;;;;6117552;29;20307;-68
2022/11/07 13:02:50;;;;;;;5.10;4.57;;;11.20;99.90;;;;;;6101239;29;20303;-68
2022/11/07 13:06:07;;;;;;;6.45;4.93;;;11.20;99.90;;;;;;6118129;29;20548;-68
2022/11/07 13:09:22;;;;;;;4.82;4.40;;;11.10;99.90;;;;;;6118010;29;20304;-69
2022/11/07 13:12:34;;;;;;;5.57;4.88;;;11.00;99.90;;;;;;6117625;29;20301;-69
2022/11/07 13:15:39;;;;;;;5.13;4.55;;;10.80;99.90;;;;;;6117847;29;20277;-68
2022/11/07 13:19:11;;;;;;;6.45;5.07;;;11.00;99.90;;;;;;6117343;29;20291;-68
2022/11/07 13:22:32;;;;;;;6.55;5.38;;;11.00;99.90;;;;;;6117585;29;20350;-68
2022/11/07 13:25:39;;;;;;;5.95;5.38;;;10.90;99.90;;;;;;6117731;29;20272;-68
2022/11/07 13:28:57;;;;;;;6.30;5.53;;;10.90;99.90;;;;;;6100654;29;20300;-68
2022/11/07 13:32:09;;;;;;;7.15;5.28;;;11.00;99.90;;;;;;6117385;29;20272;-68
2022/11/07 13:35:26;;;;;;;6.35;5.75;;;11.20;99.90;;;;;;6117807;29;20275;-68
2022/11/07 13:38:31;;;;;;;6.88;5.50;;;11.30;99.90;;;;;;6116934;29;20307;-67
2022/11/07 13:41:36;;;;;;;6.15;5.25;;;11.30;99.90;;;;;;6117595;29;20276;-68
2022/11/07 13:44:50;;;;;;;6.82;5.60;;;11.30;99.90;;;;;;6116978;29;20295;-68
2022/11/07 13:47:58;;;;;;;8.52;5.40;;;11.20;99.90;;;;;;6116750;29;20487;-68
2022/11/07 13:51:08;;;;;;;7.43;5.18;;;11.20;99.90;;;;;;6117650;29;20276;-67
2022/11/07 13:54:25;;;;;;;5.30;4.65;;;11.30;99.90;;;;;;6116625;29;20296;-68
2022/11/07 13:57:36;;;;;;;5.85;4.88;;;11.20;99.90;;;;;;6116665;29;20599;-67
2022/11/07 14:00:43;;;;;;;12.05;5.28;;;11.30;99.90;;;;;;6117472;29;20580;-67
2022/11/07 14:03:47;;;;;;;8.35;5.20;;;11.30;99.90;;;;;;6116772;29;20291;-67
2022/11/07 14:06:56;;;;;;;8.30;5.28;;;11.30;99.90;;;;;;6116307;29;20307;-68
2022/11/07 14:10:03;;;;;;;6.40;4.45;;;11.30;99.90;;;;;;6120536;29;20279;-67
2022/11/07 14:13:13;;;;;;;8.73;5.00;;;11.30;99.90;;;;;;6140095;29;20303;-68
2022/11/07 14:16:22;;;;;;;6.10;4.80;;;11.20;99.90;;;;;;6139980;29;20275;-67
2022/11/07 14:19:29;;;;;;;5.20;4.03;;;11.20;99.90;;;;;;6140238;29;20489;-67
2022/11/07 14:22:34;;;;;;;9.32;4.60;;;11.20;99.90;;;;;;6139680;29;20302;-67
2022/11/07 14:25:39;;;;;;;7.95;5.03;;;11.10;99.90;;;;;;6140182;29;20519;-67
2022/11/07 14:28:44;;;;;;;5.78;5.28;;;11.20;99.90;;;;;;6139259;29;20298;-68
2022/11/07 14:31:50;;;;;;;4.88;4.43;;;11.20;99.90;;;;;;6139951;29;20280;-67
2022/11/07 14:34:56;;;;;;;8.27;5.32;;;11.10;99.90;;;;;;6139312;29;20299;-67
2022/11/07 14:38:09;;;;;;;7.22;4.88;;;11.10;99.90;;;;;;6139675;29;20586;-67
2022/11/07 14:41:15;;;;;;;5.45;4.82;;;11.10;99.90;;;;;;6137749;29;20271;-67
2022/11/07 14:44:23;;;;;;;4.65;4.22;;;11.10;99.90;;;;;;6139568;29;20295;-67
2022/11/07 14:47:41;;;;;;;7.22;4.85;;;11.20;99.90;;;;;;6139376;29;20306;-69
2022/11/07 14:50:47;;;;;;;5.03;4.65;;;11.20;99.90;;;;;;6140384;29;20271;-67
2022/11/07 14:53:59;;;;;;;6.30;4.63;;;11.20;99.90;;;;;;6139653;29;20303;-67
2022/11/07 14:57:05;;;;;;;6.47;5.30;;;11.10;99.90;;;;;;6139729;29;20275;-68
2022/11/07 15:00:16;;;;;;;5.93;4.65;;;11.10;99.90;;;;;;6140905;29;20436;-68
2022/11/07 15:03:31;;;;;;;5.35;4.85;;;11.10;99.90;;;;;;6140160;29;20452;-68
2022/11/07 15:06:43;;;;;;;6.35;4.60;;;11.10;99.90;;;;;;6140265;29;20298;-67
2022/11/07 15:09:48;;;;;;;4.88;4.57;;;11.00;99.90;;;;;;6139395;29;20302;-68
2022/11/07 15:12:55;;;;;;;5.38;4.13;;;11.00;99.90;;;;;;6139408;29;20315;-67
2022/11/07 15:16:03;;;;;;;4.82;4.32;;;11.00;99.90;;;;;;6139773;29;20279;-68
2022/11/07 15:19:19;;;;;;;7.18;4.38;;;11.00;99.90;;;;;;6139296;29;20628;-69
2022/11/07 15:22:30;;;;;;;4.82;3.72;;;11.10;99.90;;;;;;6139961;29;20295;-68
2022/11/07 15:25:38;;;;;;;4.60;4.25;;;11.00;99.90;;;;;;6144217;29;20275;-67
2022/11/07 15:28:46;;;;;;;4.10;3.90;;;10.90;99.90;;;;;;6143473;29;20312;-68
2022/11/07 15:31:51;;;;;;;7.97;4.03;;;10.90;99.90;;;;;;6143848;29;20279;-68
2022/11/07 15:34:57;;;;;;;4.10;3.80;;;10.90;99.90;;;;;;6143203;29;20279;-68
2022/11/07 15:38:25;;;;;;;4.38;4.00;;;10.90;99.90;;;;;;6143097;29;20493;-67
2022/11/07 15:41:30;;;;;;;4.88;4.68;;;11.00;99.90;;;;;;6126676;29;20497;-68
2022/11/07 15:44:35;;;;;;;6.15;4.20;;;10.90;99.90;;;;;;6143234;29;20472;-68
2022/11/07 15:47:40;;;;;;;6.93;4.72;;;10.90;99.90;;;;;;6143428;29;20311;-68
2022/11/07 15:50:47;;;;;;;8.07;4.97;;;10.90;99.90;;;;;;6143476;29;20267;-68
2022/11/07 15:53:52;;;;;;;5.28;4.40;;;10.90;99.90;;;;;;6143285;29;20311;-68
2022/11/07 15:57:01;;;;;;;7.55;4.25;;;10.90;99.90;;;;;;6142613;29;20291;-68
2022/11/07 16:03:35;;;;;;;7.30;3.88;;;10.90;99.90;;;;;;6119338;29;20296;-67
2022/11/07 16:06:42;;;;;;;5.95;5.38;;;10.90;99.90;;;;;;6119543;29;20299;-67
2022/11/07 16:09:49;;;;;;;11.23;5.22;;;11.00;99.90;;;;;;6121483;29;20327;-68
2022/11/07 16:12:54;;;;;;;7.90;4.43;;;11.10;99.90;;;;;;6142830;29;20493;-68
2022/11/07 16:16:03;;;;;;;5.38;4.20;;;11.00;99.90;;;;;;6143099;29;20555;-67
2022/11/07 16:19:13;;;;;;;7.38;3.38;;;11.00;99.90;;;;;;6142638;29;20306;-67
2022/11/07 16:22:19;;;;;;;3.90;3.67;;;11.00;99.90;;;;;;6142290;29;20295;-68
2022/11/07 16:25:25;;;;;;;5.20;3.50;;;11.00;99.90;;;;;;6143003;29;20271;-67
2022/11/07 16:28:32;;;;;;;5.57;3.95;;;11.00;99.90;;;;;;6142520;29;20307;-66
2022/11/07 16:31:37;;;;;;;4.30;3.70;;;10.90;99.90;;;;;;6143030;29;20272;-67